createdAt,value
2023-11-15T00:01:19.391Z,85818.28
2023-11-15T00:03:45.632Z,85819.34
2023-11-15T00:06:12.077Z,85821.50
2023-11-15T00:08:38.341Z,85829.19
2023-11-15T00:11:04.537Z,85815.91
2023-11-15T00:13:30.723Z,85818.56
2023-11-15T00:15:56.931Z,85826.41
2023-11-15T00:18:23.155Z,85826.63
2023-11-15T00:20:49.349Z,85816.13
2023-11-15T00:23:15.552Z,85815.72
2023-11-15T00:25:41.723Z,85818.53
2023-11-15T00:28:07.874Z,85831.28
2023-11-15T00:30:34.053Z,85833.00
2023-11-15T00:33:00.347Z,85815.66
2023-11-15T00:35:26.909Z,85820.41
2023-11-15T00:37:53.173Z,85825.44
2023-11-15T00:40:19.354Z,85821.88
2023-11-15T00:42:45.536Z,85828.53
2023-11-15T00:45:11.683Z,85835.97
2023-11-15T00:47:37.942Z,85831.44
2023-11-15T00:50:04.153Z,85826.00
2023-11-15T00:52:30.332Z,85825.28
2023-11-15T00:54:56.533Z,85832.69
2023-11-15T00:57:22.753Z,85837.94
2023-11-15T00:59:48.939Z,85840.06
2023-11-15T01:02:15.207Z,85846.03
2023-11-15T01:04:41.408Z,85850.53
2023-11-15T01:07:07.582Z,85834.34
2023-11-15T01:09:33.746Z,85842.66
2023-11-15T01:11:59.912Z,85853.31
2023-11-15T01:14:26.114Z,85846.72
2023-11-15T01:16:52.301Z,85850.66
2023-11-15T01:19:18.455Z,85857.88
2023-11-15T01:21:44.616Z,85863.41
2023-11-15T01:24:10.764Z,85858.41
2023-11-15T01:26:36.968Z,85858.59
2023-11-15T01:29:03.143Z,85862.97
2023-11-15T01:31:29.332Z,85862.22
2023-11-15T01:33:55.534Z,85862.56
2023-11-15T01:36:21.707Z,85877.25
2023-11-15T01:38:47.875Z,85867.59
2023-11-15T01:41:14.042Z,85859.31
2023-11-15T01:43:40.224Z,85868.94
2023-11-15T01:46:06.500Z,85871.88
2023-11-15T01:48:32.702Z,85878.19
2023-11-15T01:50:58.883Z,85877.44
2023-11-15T01:53:25.121Z,85867.44
2023-11-15T01:55:51.312Z,85874.06
2023-11-15T02:01:01.152Z,85876.38
2023-11-15T02:03:27.352Z,85879.63
2023-11-15T02:05:53.566Z,85882.03
2023-11-15T02:08:19.818Z,85874.75
2023-11-15T02:10:45.975Z,85870.78
2023-11-15T02:13:12.126Z,85857.56
2023-11-15T02:15:38.268Z,85850.84
2023-11-15T02:18:04.480Z,85854.84
2023-11-15T02:20:30.708Z,85856.06
2023-11-15T02:22:56.860Z,85860.38
2023-11-15T02:25:23.007Z,85853.81
2023-11-15T02:27:49.133Z,85857.84
2023-11-15T02:30:15.275Z,85860.09
2023-11-15T02:32:41.500Z,85856.91
2023-11-15T02:35:07.728Z,85851.47
2023-11-15T02:37:33.871Z,85857.13
2023-11-15T02:40:00.008Z,85862.53
2023-11-15T02:42:26.156Z,85853.13
2023-11-15T02:44:52.350Z,85858.41
2023-11-15T02:47:18.552Z,85860.66
2023-11-15T02:49:44.702Z,85860.94
2023-11-15T02:52:10.840Z,85867.78
2023-11-15T02:54:36.967Z,85869.41
2023-11-15T02:57:03.120Z,85870.28
2023-11-15T02:59:29.293Z,85874.31
2023-11-15T03:01:55.486Z,85872.94
2023-11-15T03:04:21.741Z,85875.19
2023-11-15T03:06:47.906Z,85877.72
2023-11-15T03:09:14.052Z,85881.81
2023-11-15T03:11:40.210Z,85891.81
2023-11-15T03:14:06.378Z,85884.94
2023-11-15T03:16:32.612Z,85890.50
2023-11-15T03:18:58.794Z,85898.03
2023-11-15T03:21:24.952Z,85881.38
2023-11-15T03:23:51.161Z,85880.47
2023-11-15T03:26:17.324Z,85878.53
2023-11-15T03:28:43.484Z,85892.38
2023-11-15T03:31:09.649Z,85892.94
2023-11-15T03:33:35.913Z,85899.38
2023-11-15T03:36:02.169Z,85896.41
2023-11-15T03:38:28.402Z,85880.09
2023-11-15T03:40:54.600Z,85888.44
2023-11-15T03:43:20.767Z,85887.66
2023-11-15T03:45:46.942Z,85892.06
2023-11-15T03:48:13.217Z,85896.78
2023-11-15T03:50:39.391Z,85893.63
2023-11-15T03:53:05.603Z,85885.41
2023-11-15T03:55:37.686Z,85892.13
2023-11-15T03:58:03.875Z,85891.19
2023-11-15T04:00:30.025Z,85893.38
2023-11-15T04:02:56.390Z,85888.31
2023-11-15T04:05:22.693Z,85910.44
2023-11-15T04:07:48.883Z,85901.16
2023-11-15T04:10:15.037Z,85888.66
2023-11-15T04:12:41.201Z,85890.88
2023-11-15T04:15:07.365Z,85910.06
2023-11-15T04:17:33.608Z,85908.97
2023-11-15T04:19:59.819Z,85897.88
2023-11-15T04:22:25.969Z,85905.72
2023-11-15T04:24:52.150Z,85910.72
2023-11-15T04:27:18.352Z,85914.78
2023-11-15T04:29:44.541Z,85912.19
2023-11-15T04:32:10.703Z,85907.78
2023-11-15T04:34:36.888Z,85901.56
2023-11-15T04:37:03.064Z,85905.81
2023-11-15T04:39:29.245Z,85911.16
2023-11-15T04:41:55.449Z,85909.50
2023-11-15T04:44:21.672Z,85914.13
2023-11-15T04:46:47.862Z,85917.00
2023-11-15T04:49:14.036Z,85912.72
2023-11-15T04:51:40.200Z,85903.25
2023-11-15T04:54:06.372Z,85911.84
2023-11-15T04:56:32.556Z,85913.38
2023-11-15T04:58:58.738Z,85910.88
2023-11-15T05:01:24.952Z,85909.09
2023-11-15T05:03:51.322Z,85909.44
2023-11-15T05:06:17.580Z,85919.84
2023-11-15T05:08:43.818Z,85913.16
2023-11-15T05:11:10.010Z,85914.50
2023-11-15T05:13:36.173Z,85910.84
2023-11-15T05:16:02.355Z,85920.88
2023-11-15T05:18:28.597Z,85912.47
2023-11-15T05:20:54.892Z,85920.94
2023-11-15T05:23:21.080Z,85933.88
2023-11-15T05:25:47.222Z,85939.91
2023-11-15T05:28:13.421Z,85926.19
2023-11-15T05:30:39.578Z,85928.72
2023-11-15T05:33:05.788Z,85926.41
2023-11-15T05:35:31.995Z,85928.19
2023-11-15T05:37:58.180Z,85933.78
2023-11-15T05:40:24.392Z,85928.75
2023-11-15T05:42:50.564Z,85931.97
2023-11-15T05:45:16.763Z,85949.16
2023-11-15T05:47:43.002Z,85946.34
2023-11-15T05:50:09.188Z,85948.00
2023-11-15T05:52:35.352Z,85971.03
2023-11-15T05:55:01.527Z,85958.22
2023-11-15T05:57:27.685Z,85964.50
2023-11-15T05:59:53.856Z,85976.94
2023-11-15T06:02:20.037Z,85978.34
2023-11-15T06:04:46.192Z,85980.91
2023-11-15T06:07:12.337Z,85969.41
2023-11-15T06:09:38.491Z,85956.56
2023-11-15T06:12:04.675Z,85946.22
2023-11-15T06:14:30.834Z,85951.47
2023-11-15T06:16:57.041Z,85958.47
2023-11-15T06:19:23.278Z,85951.59
2023-11-15T06:21:49.456Z,85941.28
2023-11-15T06:24:15.648Z,85940.75
2023-11-15T06:26:41.837Z,85935.81
2023-11-15T06:29:08.070Z,85926.84
2023-11-15T06:31:34.219Z,85919.88
2023-11-15T06:34:00.513Z,85924.84
2023-11-15T06:36:26.765Z,85918.53
2023-11-15T06:38:52.920Z,85928.31
2023-11-15T06:41:19.108Z,85930.13
2023-11-15T06:43:45.276Z,85929.34
2023-11-15T06:46:11.456Z,85936.50
2023-11-15T06:48:37.679Z,85942.72
2023-11-15T06:51:04.005Z,85943.97
2023-11-15T06:53:30.222Z,85938.50
2023-11-15T06:55:56.391Z,85947.41
2023-11-15T06:58:22.548Z,85962.25
2023-11-15T07:00:48.730Z,85963.13
2023-11-15T07:03:15.058Z,85961.94
2023-11-15T07:05:41.300Z,85970.66
2023-11-15T07:08:07.532Z,85981.47
2023-11-15T07:10:33.686Z,85989.94
2023-11-15T07:12:59.853Z,85984.44
2023-11-15T07:15:26.034Z,85990.72
2023-11-15T07:17:52.284Z,85993.78
2023-11-15T07:20:18.478Z,85995.84
2023-11-15T07:22:44.644Z,85991.16
2023-11-15T07:25:10.805Z,86011.25
2023-11-15T07:27:36.969Z,86008.25
2023-11-15T07:30:03.225Z,86011.75
2023-11-15T07:32:29.455Z,86022.44
2023-11-15T07:34:55.629Z,86026.97
2023-11-15T07:37:21.797Z,86038.41
2023-11-15T07:39:47.981Z,86037.94
2023-11-15T07:42:14.193Z,86040.44
2023-11-15T07:44:40.398Z,86049.22
2023-11-15T07:47:06.584Z,86052.44
2023-11-15T07:49:32.745Z,86058.16
2023-11-15T07:51:58.896Z,86060.50
2023-11-15T07:54:25.140Z,86052.00
2023-11-15T07:56:51.461Z,86052.44
2023-11-15T07:59:17.653Z,86049.25
2023-11-15T08:01:47.214Z,86057.25
2023-11-15T08:04:14.551Z,86054.31
2023-11-15T08:06:40.762Z,86046.28
2023-11-15T08:09:06.992Z,86034.00
2023-11-15T08:11:33.159Z,86033.72
2023-11-15T08:13:59.339Z,86033.56
2023-11-15T08:16:25.511Z,86039.72
2023-11-15T08:18:51.824Z,86040.41
2023-11-15T08:21:18.062Z,86031.50
2023-11-15T08:23:44.237Z,86033.66
2023-11-15T08:26:10.406Z,86035.25
2023-11-15T08:28:36.559Z,86039.50
2023-11-15T08:31:02.733Z,86063.03
2023-11-15T08:33:29.124Z,86051.66
2023-11-15T08:35:55.416Z,86058.84
2023-11-15T08:38:21.583Z,86058.44
2023-11-15T08:40:47.758Z,86056.47
2023-11-15T08:43:13.925Z,86061.25
2023-11-15T08:45:40.100Z,86059.91
2023-11-15T08:48:06.408Z,86057.63
2023-11-15T08:50:32.655Z,86070.47
2023-11-15T08:52:58.843Z,86072.16
2023-11-15T08:55:25.006Z,86062.88
2023-11-15T08:57:51.161Z,86071.44
2023-11-15T09:00:17.542Z,86072.28
2023-11-15T09:02:43.878Z,86077.66
2023-11-15T09:05:10.133Z,86087.25
2023-11-15T09:07:36.297Z,86088.19
2023-11-15T09:10:02.449Z,86094.78
2023-11-15T09:12:28.596Z,86089.44
2023-11-15T09:14:54.815Z,86094.50
2023-11-15T09:17:21.008Z,86095.69
2023-11-15T09:19:47.181Z,86094.09
2023-11-15T09:22:13.338Z,86097.09
2023-11-15T09:24:39.514Z,86091.88
2023-11-15T09:27:05.698Z,86106.53
2023-11-15T09:29:31.877Z,86107.25
2023-11-15T09:31:58.038Z,86114.88
2023-11-15T09:34:24.303Z,86113.22
2023-11-15T09:36:50.532Z,86124.63
2023-11-15T09:39:16.723Z,86126.00
2023-11-15T09:41:42.945Z,86124.81
2023-11-15T09:44:09.110Z,86141.22
2023-11-15T09:46:35.300Z,86141.00
2023-11-15T09:49:07.405Z,86140.19
2023-11-15T09:51:34.287Z,86141.13
2023-11-15T09:54:08.546Z,86147.63
2023-11-15T09:56:42.164Z,86149.56
2023-11-15T10:01:40.483Z,86148.19
2023-11-15T10:04:06.661Z,86152.00
2023-11-15T10:06:32.814Z,86154.56
2023-11-15T10:08:58.991Z,86154.44
2023-11-15T10:11:25.209Z,86153.91
2023-11-15T10:13:51.369Z,86145.00
2023-11-15T10:16:17.617Z,86154.94
2023-11-15T10:18:43.794Z,86145.56
2023-11-15T10:21:10.061Z,86147.59
2023-11-15T10:23:38.396Z,86147.59
2023-11-15T10:26:05.912Z,86148.38
2023-11-15T10:28:32.087Z,86145.03
2023-11-15T10:30:58.249Z,86150.69
2023-11-15T10:33:24.779Z,86150.66
2023-11-15T10:35:52.382Z,86153.09
2023-11-15T10:38:19.824Z,86136.91
2023-11-15T10:40:45.983Z,86144.06
2023-11-15T10:43:12.149Z,86150.66
2023-11-15T10:45:38.339Z,86152.59
2023-11-15T10:48:04.624Z,86154.97
2023-11-15T10:50:30.889Z,86156.59
2023-11-15T10:52:57.047Z,86155.75
2023-11-15T10:55:23.276Z,86157.50
2023-11-15T10:57:49.456Z,86156.78
2023-11-15T11:00:15.627Z,86152.00
2023-11-15T11:02:42.074Z,86143.22
2023-11-15T11:05:08.391Z,86138.78
2023-11-15T11:07:34.583Z,86131.88
2023-11-15T11:10:00.764Z,86137.31
2023-11-15T11:12:27.032Z,86133.63
2023-11-15T11:14:53.216Z,86128.22
2023-11-15T11:17:19.381Z,86128.03
2023-11-15T11:19:45.585Z,86126.47
2023-11-15T11:22:11.752Z,86128.97
2023-11-15T11:24:37.973Z,86120.75
2023-11-15T11:27:04.263Z,86118.13
2023-11-15T11:29:30.475Z,86119.78
2023-11-15T11:31:56.679Z,86108.19
2023-11-15T11:34:22.853Z,86109.59
2023-11-15T11:36:49.016Z,86108.56
2023-11-15T11:39:15.258Z,86113.63
2023-11-15T11:41:41.465Z,86106.31
2023-11-15T11:44:07.633Z,86106.09
2023-11-15T11:46:33.880Z,86102.19
2023-11-15T11:49:00.075Z,86092.22
2023-11-15T11:51:26.246Z,86093.03
2023-11-15T11:53:52.432Z,86086.28
2023-11-15T11:56:18.612Z,86077.69
2023-11-15T11:58:45.017Z,86076.88
2023-11-15T12:01:11.408Z,86073.91
2023-11-15T12:03:37.744Z,86083.31
2023-11-15T12:06:03.996Z,86078.94
2023-11-15T12:08:30.155Z,86075.72
2023-11-15T12:10:56.317Z,86068.63
2023-11-15T12:13:22.483Z,86062.69
2023-11-15T12:15:48.659Z,86061.28
2023-11-15T12:18:14.927Z,86065.56
2023-11-15T12:20:41.451Z,86063.91
2023-11-15T12:23:07.774Z,86064.56
2023-11-15T12:25:33.934Z,86059.09
2023-11-15T12:28:00.096Z,86048.38
2023-11-15T12:30:26.304Z,86041.03
2023-11-15T12:32:52.519Z,86041.25
2023-11-15T12:35:18.710Z,86052.47
2023-11-15T12:37:44.880Z,86049.84
2023-11-15T12:40:11.052Z,86048.63
2023-11-15T12:42:37.228Z,86054.38
2023-11-15T12:45:03.455Z,86067.47
2023-11-15T12:47:29.671Z,86065.56
2023-11-15T12:49:55.833Z,86072.94
2023-11-15T12:52:22.003Z,86097.00
2023-11-15T12:54:48.187Z,86097.69
2023-11-15T12:57:14.441Z,86103.63
2023-11-15T12:59:40.652Z,86100.97
2023-11-15T13:02:07.252Z,86098.84
2023-11-15T13:04:33.695Z,86092.91
2023-11-15T13:06:59.891Z,86102.41
2023-11-15T13:09:26.117Z,86106.84
2023-11-15T13:11:52.376Z,86105.28
2023-11-15T13:14:18.552Z,86103.78
2023-11-15T13:16:44.773Z,86109.25
2023-11-15T13:19:10.953Z,86111.16
2023-11-15T13:21:37.106Z,86107.97
2023-11-15T13:24:03.367Z,86114.63
2023-11-15T13:26:29.550Z,86110.84
2023-11-15T13:28:55.729Z,86112.63
2023-11-15T13:31:21.907Z,86114.69
2023-11-15T13:33:49.015Z,86119.66
2023-11-15T13:36:15.901Z,86121.28
2023-11-15T13:38:42.162Z,86118.94
2023-11-15T13:41:08.334Z,86126.50
2023-11-15T13:43:34.481Z,86125.56
2023-11-15T13:46:00.640Z,86123.25
2023-11-15T13:48:26.865Z,86125.13
2023-11-15T13:50:53.142Z,86121.22
2023-11-15T13:53:19.335Z,86114.16
2023-11-15T13:55:45.520Z,86104.44
2023-11-15T13:58:11.684Z,86110.28
2023-11-15T14:00:37.836Z,86105.81
2023-11-15T14:03:04.092Z,86108.03
2023-11-15T14:05:30.355Z,86112.50
2023-11-15T14:07:56.521Z,86107.28
2023-11-15T14:10:22.673Z,86107.25
2023-11-15T14:12:48.873Z,86108.16
2023-11-15T14:15:15.161Z,86114.03
2023-11-15T14:17:41.474Z,86122.34
2023-11-15T14:20:07.734Z,86117.88
2023-11-15T14:22:33.945Z,86126.41
2023-11-15T14:25:00.165Z,86123.91
2023-11-15T14:27:26.382Z,86127.97
2023-11-15T14:29:52.574Z,86130.78
2023-11-15T14:32:18.745Z,86124.38
2023-11-15T14:34:44.894Z,86128.63
2023-11-15T14:37:11.069Z,86120.41
2023-11-15T14:39:37.253Z,86136.56
2023-11-15T14:42:04.551Z,86137.94
2023-11-15T14:44:32.558Z,86139.53
2023-11-15T14:46:58.859Z,86133.16
2023-11-15T14:49:25.045Z,86133.41
2023-11-15T14:51:51.221Z,86136.53
2023-11-15T14:54:17.422Z,86135.41
2023-11-15T14:56:43.632Z,86136.00
2023-11-15T14:59:09.808Z,86126.97
2023-11-15T15:01:36.039Z,86140.13
2023-11-15T15:04:02.390Z,86137.16
2023-11-15T15:06:28.768Z,86149.38
2023-11-15T15:08:54.954Z,86155.28
2023-11-15T15:11:21.140Z,86154.66
2023-11-15T15:13:47.300Z,86159.84
2023-11-15T15:16:13.542Z,86154.41
2023-11-15T15:18:39.961Z,86167.59
2023-11-15T15:21:06.308Z,86178.47
2023-11-15T15:23:32.475Z,86173.13
2023-11-15T15:25:58.839Z,86172.22
2023-11-15T15:28:25.093Z,86175.25
2023-11-15T15:30:51.278Z,86186.06
2023-11-15T15:33:17.509Z,86191.44
2023-11-15T15:35:43.740Z,86185.09
2023-11-15T15:38:11.755Z,86189.03
2023-11-15T15:40:38.496Z,86191.09
2023-11-15T15:43:04.672Z,86201.66
2023-11-15T15:45:30.862Z,86215.72
2023-11-15T15:47:57.185Z,86211.50
2023-11-15T15:50:23.460Z,86217.28
2023-11-15T15:52:49.619Z,86214.28
2023-11-15T15:55:15.785Z,86231.50
2023-11-15T15:57:41.953Z,86223.06
2023-11-15T16:00:08.192Z,86227.75
2023-11-15T16:02:34.538Z,86234.50
2023-11-15T16:05:00.705Z,86237.50
2023-11-15T16:07:26.851Z,86234.41
2023-11-15T16:09:53.048Z,86232.88
2023-11-15T16:12:19.274Z,86235.56
2023-11-15T16:14:45.479Z,86240.13
2023-11-15T16:17:11.704Z,86246.94
2023-11-15T16:19:37.886Z,86255.47
2023-11-15T16:22:04.064Z,86255.81
2023-11-15T16:24:30.228Z,86259.59
2023-11-15T16:26:56.388Z,86263.47
2023-11-15T16:29:22.602Z,86259.69
2023-11-15T16:31:48.745Z,86264.78
2023-11-15T16:34:14.895Z,86269.31
2023-11-15T16:36:41.046Z,86279.84
2023-11-15T16:39:07.234Z,86268.53
2023-11-15T16:41:33.453Z,86273.25
2023-11-15T16:43:59.682Z,86267.06
2023-11-15T16:46:25.910Z,86272.03
2023-11-15T16:48:52.183Z,86277.16
2023-11-15T16:51:18.419Z,86268.16
2023-11-15T16:53:44.599Z,86277.72
2023-11-15T16:56:10.750Z,86284.47
2023-11-15T16:58:36.938Z,86286.91
2023-11-15T17:01:03.110Z,86287.34
2023-11-15T17:03:29.314Z,86292.50
2023-11-15T17:05:55.514Z,86299.91
2023-11-15T17:08:21.704Z,86313.47
2023-11-15T17:10:47.850Z,86305.31
2023-11-15T17:13:14.009Z,86310.13
2023-11-15T17:15:40.165Z,86311.66
2023-11-15T17:18:06.438Z,86311.28
2023-11-15T17:20:32.658Z,86317.72
2023-11-15T17:22:58.836Z,86310.59
2023-11-15T17:25:25.000Z,86302.91
2023-11-15T17:27:53.041Z,86293.28
2023-11-15T17:30:19.981Z,86296.72
2023-11-15T17:32:46.237Z,86301.78
2023-11-15T17:35:12.411Z,86296.75
2023-11-15T17:37:38.586Z,86293.50
2023-11-15T17:40:04.754Z,86301.34
2023-11-15T17:42:30.965Z,86306.88
2023-11-15T17:44:57.497Z,86308.59
2023-11-15T17:47:24.961Z,86302.72
2023-11-15T17:49:51.335Z,86309.59
2023-11-15T17:52:17.503Z,86293.38
2023-11-15T17:54:43.676Z,86291.22
2023-11-15T17:57:09.860Z,86296.56
2023-11-15T17:59:36.057Z,86295.25
2023-11-15T18:02:02.231Z,86288.44
2023-11-15T18:04:28.460Z,86284.28
2023-11-15T18:06:54.648Z,86283.09
2023-11-15T18:09:20.829Z,86279.06
2023-11-15T18:11:47.005Z,86283.94
2023-11-15T18:14:13.158Z,86273.78
2023-11-15T18:16:39.377Z,86268.03
2023-11-15T18:19:06.126Z,86266.69
2023-11-15T18:21:32.652Z,86275.13
2023-11-15T18:23:58.876Z,86266.31
2023-11-15T18:26:25.042Z,86269.66
2023-11-15T18:28:51.235Z,86273.22
2023-11-15T18:31:17.448Z,86273.44
2023-11-15T18:33:43.828Z,86273.56
2023-11-15T18:36:10.637Z,86270.88
2023-11-15T18:38:36.919Z,86268.09
2023-11-15T18:41:03.067Z,86270.44
2023-11-15T18:43:29.230Z,86267.78
2023-11-15T18:45:55.433Z,86263.41
2023-11-15T18:48:21.695Z,86262.78
2023-11-15T18:50:47.876Z,86257.22
2023-11-15T18:53:14.057Z,86267.72
2023-11-15T18:55:40.214Z,86261.22
2023-11-15T18:58:06.387Z,86261.91
2023-11-15T19:00:32.584Z,86266.13
2023-11-15T19:03:00.139Z,86257.63
2023-11-15T19:05:26.463Z,86256.41
2023-11-15T19:07:52.608Z,86255.63
2023-11-15T19:10:18.778Z,86257.91
2023-11-15T19:12:44.940Z,86261.66
2023-11-15T19:15:11.099Z,86261.00
2023-11-15T19:17:37.306Z,86261.16
2023-11-15T19:20:03.469Z,86247.34
2023-11-15T19:22:29.618Z,86244.00
2023-11-15T19:24:55.773Z,86243.34
2023-11-15T19:27:21.972Z,86237.22
2023-11-15T19:29:48.145Z,86237.78
2023-11-15T19:32:14.293Z,86236.78
2023-11-15T19:34:40.442Z,86235.84
2023-11-15T19:37:06.595Z,86244.22
2023-11-15T19:39:32.815Z,86238.34
2023-11-15T19:41:59.057Z,86242.44
2023-11-15T19:44:25.231Z,86244.84
2023-11-15T19:46:51.399Z,86247.47
2023-11-15T19:49:17.553Z,86243.41
2023-11-15T19:51:43.749Z,86241.31
2023-11-15T19:54:10.039Z,86239.56
2023-11-15T19:56:36.273Z,86223.81
2023-11-15T19:59:02.457Z,86226.06
2023-11-15T20:01:28.673Z,86215.41
2023-11-15T20:03:55.021Z,86213.06
2023-11-15T20:06:21.331Z,86208.63
2023-11-15T20:08:47.540Z,86204.75
2023-11-15T20:11:13.684Z,86202.97
2023-11-15T20:13:39.834Z,86204.63
2023-11-15T20:16:05.991Z,86188.00
2023-11-15T20:18:32.290Z,86184.09
2023-11-15T20:20:58.512Z,86186.50
2023-11-15T20:23:24.658Z,86179.25
2023-11-15T20:25:50.813Z,86177.59
2023-11-15T20:28:16.973Z,86177.34
2023-11-15T20:30:43.137Z,86165.94
2023-11-15T20:33:09.383Z,86175.22
2023-11-15T20:35:35.577Z,86179.13
2023-11-15T20:38:01.737Z,86162.44
2023-11-15T20:40:27.893Z,86155.03
2023-11-15T20:42:54.084Z,86155.94
2023-11-15T20:45:20.319Z,86149.56
2023-11-15T20:47:46.735Z,86153.78
2023-11-15T20:50:13.173Z,86156.44
2023-11-15T20:52:39.370Z,86148.34
2023-11-15T20:55:05.542Z,86130.59
2023-11-15T20:57:31.712Z,86130.78
2023-11-15T20:59:59.899Z,86124.72
2023-11-15T21:02:26.577Z,86116.31
2023-11-15T21:04:52.893Z,86110.75
2023-11-15T21:07:19.109Z,86110.75
2023-11-15T21:09:45.260Z,86111.75
2023-11-15T21:12:11.450Z,86110.94
2023-11-15T21:14:37.624Z,86122.88
2023-11-15T21:17:03.810Z,86117.03
2023-11-15T21:19:29.992Z,86105.16
2023-11-15T21:21:56.234Z,86103.31
2023-11-15T21:24:22.430Z,86107.78
2023-11-15T21:26:48.594Z,86102.09
2023-11-15T21:29:14.755Z,86103.53
2023-11-15T21:31:41.449Z,86105.31
2023-11-15T21:34:07.816Z,86092.31
2023-11-15T21:36:34.029Z,86089.31
2023-11-15T21:39:00.226Z,86082.94
2023-11-15T21:41:26.425Z,86083.44
2023-11-15T21:43:52.570Z,86077.66
2023-11-15T21:46:18.805Z,86065.09
2023-11-15T21:48:45.018Z,86064.78
2023-11-15T21:51:11.218Z,86063.41
2023-11-15T21:53:37.371Z,86060.34
2023-11-15T21:56:03.617Z,86056.56
2023-11-15T21:58:29.869Z,86056.44
2023-11-15T22:00:56.020Z,86061.25
2023-11-15T22:03:22.249Z,86054.94
2023-11-15T22:05:48.428Z,86052.31
2023-11-15T22:08:14.590Z,86053.00
2023-11-15T22:10:40.757Z,86054.88
2023-11-15T22:13:06.935Z,86058.41
2023-11-15T22:15:33.096Z,86053.13
2023-11-15T22:17:59.365Z,86048.75
2023-11-15T22:20:25.598Z,86047.25
2023-11-15T22:22:51.769Z,86045.50
2023-11-15T22:25:17.955Z,86059.53
2023-11-15T22:27:44.127Z,86062.03
2023-11-15T22:30:10.318Z,86058.47
2023-11-15T22:32:36.542Z,86064.19
2023-11-15T22:35:02.726Z,86064.72
2023-11-15T22:37:28.887Z,86061.97
2023-11-15T22:39:55.040Z,86063.81
2023-11-15T22:42:21.276Z,86061.91
2023-11-15T22:44:47.464Z,86063.38
2023-11-15T22:47:13.648Z,86064.25
2023-11-15T22:49:39.850Z,86062.59
2023-11-15T22:52:06.012Z,86055.59
2023-11-15T22:54:32.247Z,86055.69
2023-11-15T22:56:58.493Z,86050.88
2023-11-15T22:59:24.707Z,86046.88
2023-11-15T23:01:50.880Z,86045.59
2023-11-15T23:04:17.245Z,86041.41
2023-11-15T23:06:43.536Z,86029.19
2023-11-15T23:09:09.734Z,86027.78
2023-11-15T23:11:35.911Z,86027.13
2023-11-15T23:14:02.120Z,86031.47
2023-11-15T23:16:28.333Z,86016.03
2023-11-15T23:18:54.596Z,86014.34
2023-11-15T23:21:20.827Z,86004.22
2023-11-15T23:23:47.036Z,86002.47
2023-11-15T23:26:13.224Z,86004.38
2023-11-15T23:28:39.411Z,86007.69
2023-11-15T23:31:05.595Z,86013.75
2023-11-15T23:33:31.788Z,86016.31
2023-11-15T23:35:58.048Z,86020.84
2023-11-15T23:38:24.254Z,86028.06
2023-11-15T23:40:50.419Z,86027.03
2023-11-15T23:43:16.633Z,86028.44
2023-11-15T23:45:42.821Z,86023.84
2023-11-15T23:48:09.101Z,86038.81
2023-11-15T23:50:35.348Z,86035.22
2023-11-15T23:53:01.536Z,86036.81
2023-11-15T23:55:27.720Z,86043.16
2023-11-15T23:57:53.889Z,86050.84
